Time;durP1;ratioP1;P1;durP2;ratioP2;P2;SDS_P1;SDS_P2;PMS_P1;PMS_P2;Temp;Humidity;BMP_temperature;BMP_pressure;BME280_temperature;BME280_humidity;BME280_pressure;Samples;Min_cycle;Max_cycle;Signal;HPM_P1;HPM_P2
2023/08/19 00:00:46;;;;;;;7.43;5.88;;;;;;;18.17;84.25;95985.00;2066107;28;20387;-57
2023/08/19 00:01:48;;;;;;;11.23;6.40;;;;;;;18.13;84.53;95973.06;2065709;28;20057;-57
2023/08/19 00:02:49;;;;;;;9.40;6.70;;;;;;;18.13;84.55;95976.53;2065756;28;20062;-57
2023/08/19 00:03:51;;;;;;;8.05;5.82;;;;;;;18.16;84.46;95978.06;2065932;28;20058;-57
2023/08/19 00:04:52;;;;;;;7.75;5.93;;;;;;;18.16;84.26;95973.66;2065859;28;20062;-57
2023/08/19 00:05:53;;;;;;;8.40;6.22;;;;;;;18.17;84.51;95977.94;2065493;28;20482;-57
2023/08/19 00:06:54;;;;;;;13.10;6.32;;;;;;;18.18;84.25;95979.63;2066178;28;20051;-57
2023/08/19 00:07:55;;;;;;;9.23;6.32;;;;;;;18.16;84.74;95965.78;2065817;28;20049;-58
2023/08/19 00:08:57;;;;;;;7.60;5.63;;;;;;;18.17;85.13;95972.69;2065518;28;20046;-57
2023/08/19 00:09:58;;;;;;;7.80;6.32;;;;;;;18.17;85.21;95974.47;2065231;28;20053;-57
2023/08/19 00:10:59;;;;;;;6.93;5.93;;;;;;;18.19;84.71;95975.22;2065808;28;20058;-57
2023/08/19 00:12:00;;;;;;;8.82;6.55;;;;;;;18.18;84.53;95969.13;2065653;28;20411;-57
2023/08/19 00:13:01;;;;;;;8.05;6.30;;;;;;;18.18;84.76;95969.13;2065509;28;20058;-57
2023/08/19 00:14:05;;;;;;;9.38;6.10;;;;;;;18.19;84.59;95962.91;2065159;28;20050;-57
2023/08/19 00:15:07;;;;;;;9.65;6.10;;;;;;;18.18;84.31;95968.28;2066149;28;20408;-57
2023/08/19 00:16:08;;;;;;;8.68;6.38;;;;;;;18.16;84.58;95965.78;2065308;28;20050;-57
2023/08/19 00:17:10;;;;;;;7.35;5.60;;;;;;;18.15;85.19;95974.63;2065427;28;20383;-57
2023/08/19 00:18:11;;;;;;;12.02;6.40;;;;;;;18.12;84.44;95969.56;2065968;28;20127;-56
2023/08/19 00:19:12;;;;;;;8.15;6.13;;;;;;;18.14;84.79;95974.72;2065775;28;20050;-57
2023/08/19 00:20:13;;;;;;;9.05;5.68;;;;;;;18.07;85.02;95971.75;2065164;28;20046;-57
2023/08/19 00:21:14;;;;;;;10.77;6.57;;;;;;;18.03;85.54;95970.31;2065465;28;20046;-57
2023/08/19 00:22:16;;;;;;;10.40;5.97;;;;;;;18.01;85.96;95970.41;2066001;28;20047;-57
2023/08/19 00:23:17;;;;;;;7.85;6.00;;;;;;;18.02;86.01;95968.66;2066013;28;20057;-57
2023/08/19 00:24:18;;;;;;;8.77;5.97;;;;;;;18.01;86.07;95972.19;2065392;28;20061;-57
2023/08/19 00:25:19;;;;;;;7.50;6.10;;;;;;;18.05;85.54;95966.59;2065695;28;20391;-57
2023/08/19 00:26:20;;;;;;;8.00;5.80;;;;;;;18.09;85.64;95969.81;2065797;28;20053;-57
2023/08/19 00:27:21;;;;;;;9.13;5.95;;;;;;;18.07;85.35;95971.75;2065445;28;20053;-57
2023/08/19 00:28:22;;;;;;;8.07;5.95;;;;;;;18.01;85.89;95966.94;2065676;28;20426;-57
2023/08/19 00:29:25;;;;;;;8.30;6.50;;;;;;;17.96;86.09;95975.22;2057090;28;20059;-58
2023/08/19 00:30:26;;;;;;;7.65;5.93;;;;;;;17.95;86.51;95972.69;2057103;28;20511;-57
2023/08/19 00:31:27;;;;;;;9.43;6.53;;;;;;;17.94;86.24;95969.22;2057243;28;20062;-57
2023/08/19 00:32:28;;;;;;;9.25;6.05;;;;;;;17.89;86.08;95970.53;2057062;28;20059;-57
2023/08/19 00:33:29;;;;;;;7.78;6.75;;;;;;;17.87;86.74;95970.66;2057307;28;20407;-57
2023/08/19 00:34:30;;;;;;;10.07;6.60;;;;;;;17.89;86.23;95968.75;2056880;28;20054;-57
2023/08/19 00:35:33;;;;;;;7.60;6.00;;;;;;;17.85;86.43;95973.41;2056683;28;20050;-57
2023/08/19 00:36:34;;;;;;;7.43;5.78;;;;;;;17.80;87.33;95972.06;2056853;28;20473;-57
2023/08/19 00:37:35;;;;;;;8.93;6.72;;;;;;;17.71;87.11;95968.31;2057078;28;20059;-57
2023/08/19 00:38:36;;;;;;;9.98;6.85;;;;;;;17.79;87.10;95971.22;2048992;29;20450;-57
2023/08/19 00:39:37;;;;;;;8.85;6.28;;;;;;;17.81;87.07;95966.69;2049284;29;20055;-57
2023/08/19 00:40:39;;;;;;;7.97;6.53;;;;;;;17.92;86.21;95972.94;2049050;29;20066;-57
2023/08/19 00:41:40;;;;;;;7.22;5.90;;;;;;;17.94;87.19;95971.03;2056748;28;20047;-57
2023/08/19 00:42:41;;;;;;;8.02;5.95;;;;;;;17.85;87.32;95955.03;2065085;28;20483;-57
2023/08/19 00:43:42;;;;;;;7.30;5.53;;;;;;;17.90;87.31;95966.94;2056916;28;20078;-57
2023/08/19 00:44:43;;;;;;;8.95;6.28;;;;;;;17.88;86.44;95963.59;2056409;28;20110;-57
2023/08/19 00:45:46;;;;;;;13.20;7.60;;;;;;;17.87;85.96;95967.19;2065223;28;20069;-57
2023/08/19 00:46:47;;;;;;;8.38;6.35;;;;;;;17.89;86.71;95960.88;2056997;28;20058;-57
2023/08/19 00:47:48;;;;;;;8.73;5.82;;;;;;;17.80;86.91;95957.16;2048565;29;20420;-57
2023/08/19 00:48:49;;;;;;;7.25;6.00;;;;;;;17.85;86.02;95962.91;2041230;28;20070;-57
2023/08/19 00:49:51;;;;;;;8.35;5.63;;;;;;;17.84;86.87;95960.38;2057013;28;20057;-59
2023/08/19 00:50:52;;;;;;;7.82;5.50;;;;;;;17.93;85.49;95958.81;2049182;28;20051;-59
2023/08/19 00:51:53;;;;;;;9.95;6.30;;;;;;;17.98;86.45;95965.41;2049163;28;20058;-59
2023/08/19 00:52:54;;;;;;;11.00;6.18;;;;;;;17.91;86.59;95965.97;2049453;28;20168;-59
2023/08/19 00:53:55;;;;;;;7.75;6.28;;;;;;;17.82;87.00;95954.41;2056942;28;20070;-59
2023/08/19 00:54:56;;;;;;;6.63;5.90;;;;;;;17.78;86.74;95966.91;2056831;28;20046;-59
2023/08/19 00:55:57;;;;;;;9.27;5.72;;;;;;;17.70;87.93;95969.28;2056819;28;20050;-57
2023/08/19 00:56:59;;;;;;;8.68;6.30;;;;;;;17.66;88.01;95972.25;2064889;28;20509;-59
2023/08/19 00:58:01;;;;;;;8.70;6.53;;;;;;;17.56;87.93;95972.97;2057046;28;20047;-56
2023/08/19 00:59:04;;;;;;;9.25;6.50;;;;;;;17.55;88.42;95980.94;2049483;28;20050;-58
2023/08/19 01:00:05;;;;;;;10.05;6.60;;;;;;;17.50;88.52;95972.56;2056583;28;20529;-57
2023/08/19 01:01:07;;;;;;;11.00;6.60;;;;;;;17.49;88.65;95982.25;2057132;28;20459;-57
2023/08/19 01:02:08;;;;;;;10.68;6.63;;;;;;;17.46;89.02;95971.97;2065032;28;20056;-57
2023/08/19 01:03:09;;;;;;;8.70;6.82;;;;;;;17.45;88.41;95974.69;2064772;28;20057;-56
2023/08/19 01:04:11;;;;;;;10.57;7.63;;;;;;;17.40;89.00;95972.41;2064970;28;20054;-57
2023/08/19 01:05:12;;;;;;;8.82;7.25;;;;;;;17.40;88.56;95977.66;2065713;28;20057;-57
2023/08/19 01:06:35;;;;;;;9.00;6.85;;;;;;;17.38;89.08;95972.53;2057014;28;20538;-59
2023/08/19 01:07:55;;;;;;;8.27;7.00;;;;;;;17.32;89.23;95970.38;2059732;28;20054;-59
2023/08/19 01:09:04;;;;;;;10.18;7.07;;;;;;;17.29;89.88;95973.22;2050516;29;20523;-58
2023/08/19 01:10:17;;;;;;;9.60;6.97;;;;;;;17.27;90.31;95972.50;2052540;28;20059;-59
2023/08/19 01:11:39;;;;;;;8.55;6.93;;;;;;;17.24;90.20;95972.75;2067352;28;20050;-59
2023/08/19 01:12:49;;;;;;;11.40;7.53;;;;;;;17.20;90.85;95961.63;2066878;28;20054;-57
2023/08/19 01:14:39;;;;;;;9.27;7.38;;;;;;;17.21;91.08;95957.19;2058497;28;20054;-57
2023/08/19 01:16:08;;;;;;;7.65;6.85;;;;;;;17.17;91.20;95961.84;2034019;29;20067;-57
2023/08/19 01:17:10;;;;;;;11.23;7.57;;;;;;;17.13;90.87;95955.16;2052368;28;20042;-57
2023/08/19 01:18:11;;;;;;;8.02;6.25;;;;;;;17.12;91.31;95961.34;2050207;29;20451;-57
2023/08/19 01:19:19;;;;;;;11.82;7.95;;;;;;;17.12;91.40;95950.84;2035108;29;20071;-57
2023/08/19 01:20:21;;;;;;;8.85;7.90;;;;;;;17.12;91.29;95948.22;2036250;29;20048;-57
2023/08/19 01:21:22;;;;;;;8.10;7.20;;;;;;;17.18;90.74;95953.00;2042884;28;20539;-57
2023/08/19 01:22:51;;;;;;;9.50;6.82;;;;;;;17.24;90.33;95954.38;2050407;29;20503;-57
2023/08/19 01:23:53;;;;;;;9.57;6.93;;;;;;;17.28;89.93;95937.44;2058245;28;20051;-59
2023/08/19 01:24:54;;;;;;;8.82;7.43;;;;;;;17.36;89.05;95945.56;2049886;29;20055;-58
2023/08/19 01:25:55;;;;;;;9.15;7.57;;;;;;;17.40;88.89;95935.66;2042902;28;20056;-59
2023/08/19 01:26:57;;;;;;;12.23;7.95;;;;;;;17.44;88.16;95942.38;2042736;29;20538;-59
2023/08/19 01:28:04;;;;;;;12.07;7.80;;;;;;;17.45;88.18;95938.78;2050731;28;20058;-58
2023/08/19 01:29:05;;;;;;;7.60;6.80;;;;;;;17.46;88.29;95937.00;2066529;28;20049;-59
2023/08/19 01:30:06;;;;;;;10.80;6.38;;;;;;;17.42;88.29;95931.13;2067099;28;20497;-59
2023/08/19 01:31:08;;;;;;;12.45;6.90;;;;;;;17.46;87.45;95931.75;2066819;28;20053;-59
2023/08/19 01:32:10;;;;;;;10.63;6.28;;;;;;;17.48;87.44;95924.59;2058472;28;20043;-58
2023/08/19 01:33:11;;;;;;;9.77;7.25;;;;;;;17.41;87.38;95925.06;2050634;28;20062;-58
2023/08/19 01:34:12;;;;;;;9.10;6.75;;;;;;;17.49;88.12;95934.97;2042331;29;20047;-59
2023/08/19 01:35:14;;;;;;;9.10;7.10;;;;;;;17.48;88.02;95929.84;2042232;29;20055;-59
2023/08/19 01:36:23;;;;;;;8.45;6.90;;;;;;;17.40;88.55;95926.03;2050282;28;20051;-59
2023/08/19 01:37:37;;;;;;;9.55;6.70;;;;;;;17.36;88.48;95921.13;2059206;28;20074;-59
2023/08/19 01:38:48;;;;;;;8.60;7.03;;;;;;;17.34;88.07;95928.25;2058120;28;20126;-59
2023/08/19 01:39:50;;;;;;;9.38;6.93;;;;;;;17.32;88.21;95931.00;2060239;28;20058;-59
2023/08/19 01:40:51;;;;;;;9.27;6.75;;;;;;;17.30;88.74;95932.91;2065355;28;20050;-59
2023/08/19 01:41:52;;;;;;;9.25;7.55;;;;;;;17.25;89.12;95932.41;2058075;28;20051;-57
2023/08/19 01:42:54;;;;;;;9.30;7.43;;;;;;;17.22;89.35;95926.56;2050238;29;20070;-57
2023/08/19 01:43:57;;;;;;;9.65;7.40;;;;;;;17.17;89.43;95930.38;2041896;29;20055;-57
2023/08/19 01:44:58;;;;;;;8.63;6.68;;;;;;;17.18;90.01;95936.44;2043214;28;20060;-57
2023/08/19 01:45:59;;;;;;;11.00;7.20;;;;;;;17.11;89.68;95932.63;2058041;28;20054;-57
2023/08/19 01:47:16;;;;;;;7.78;6.38;;;;;;;17.02;89.70;95930.66;2058030;28;20519;-57
2023/08/19 01:48:19;;;;;;;8.60;6.70;;;;;;;17.00;90.20;95937.81;2058654;28;20061;-57
2023/08/19 01:49:20;;;;;;;10.55;7.57;;;;;;;16.96;91.08;95934.56;2050383;28;20419;-57
2023/08/19 01:50:22;;;;;;;9.13;7.00;;;;;;;16.97;90.74;95931.84;2057953;28;20058;-57
2023/08/19 01:51:23;;;;;;;8.77;7.38;;;;;;;16.97;90.97;95931.84;2057950;28;20057;-57
2023/08/19 01:52:24;;;;;;;10.75;6.82;;;;;;;16.92;91.45;95930.50;2050446;29;20082;-57
2023/08/19 01:53:25;;;;;;;8.93;7.38;;;;;;;16.90;91.21;95928.00;2058386;28;20127;-57
2023/08/19 01:54:26;;;;;;;11.20;6.78;;;;;;;16.92;91.87;95930.50;2058334;28;20058;-57
2023/08/19 01:55:27;;;;;;;11.25;7.75;;;;;;;16.93;91.06;95925.16;2058174;28;20055;-57
2023/08/19 01:56:28;;;;;;;8.82;6.97;;;;;;;16.89;91.40;95926.34;2058339;28;20514;-57
2023/08/19 01:57:29;;;;;;;8.65;6.60;;;;;;;16.90;91.21;95932.41;2058220;28;20058;-57
2023/08/19 01:58:30;;;;;;;11.18;6.60;;;;;;;16.95;90.02;95925.03;2058266;28;20055;-57
2023/08/19 01:59:32;;;;;;;9.77;6.68;;;;;;;16.98;89.38;95922.19;2058042;28;20066;-59
2023/08/19 02:00:33;;;;;;;13.45;6.70;;;;;;;17.06;89.49;95929.50;2050486;28;20055;-57
2023/08/19 02:01:34;;;;;;;9.50;7.22;;;;;;;17.07;89.59;95933.78;2057752;28;20067;-57
2023/08/19 02:02:35;;;;;;;9.68;7.30;;;;;;;17.04;89.76;95928.78;2058150;28;20066;-57
2023/08/19 02:03:36;;;;;;;8.30;6.63;;;;;;;16.97;90.48;95926.59;2058236;28;20059;-56
2023/08/19 02:04:38;;;;;;;9.55;7.13;;;;;;;16.97;90.41;95937.09;2066378;28;20062;-57
2023/08/19 02:05:39;;;;;;;8.80;6.70;;;;;;;16.90;90.15;95933.25;2066348;28;20058;-57
2023/08/19 02:06:40;;;;;;;8.02;6.90;;;;;;;16.88;90.05;95934.31;2058082;28;20423;-57
2023/08/19 02:07:41;;;;;;;10.25;7.57;;;;;;;16.82;90.79;95934.75;2057905;28;20046;-57
2023/08/19 02:08:42;;;;;;;10.38;8.35;;;;;;;16.74;90.60;95933.50;2057453;28;20058;-57
2023/08/19 02:09:44;;;;;;;10.80;7.50;;;;;;;16.70;91.35;95933.81;2058328;28;20062;-57
2023/08/19 02:10:45;;;;;;;8.50;7.32;;;;;;;16.66;91.67;95938.47;2066746;28;20054;-57
2023/08/19 02:11:46;;;;;;;8.95;8.05;;;;;;;16.63;92.63;95933.44;2066342;28;20061;-57
2023/08/19 02:12:47;;;;;;;10.38;7.80;;;;;;;16.61;92.12;95937.13;2066719;28;20065;-57
2023/08/19 02:13:48;;;;;;;13.40;8.38;;;;;;;16.58;92.84;95939.97;2066710;28;20062;-57
2023/08/19 02:14:49;;;;;;;8.38;7.35;;;;;;;16.54;93.56;95940.19;2065894;28;20062;-58
2023/08/19 02:15:50;;;;;;;9.15;7.97;;;;;;;16.55;93.35;95938.41;2057469;28;20062;-57
2023/08/19 02:16:51;;;;;;;9.00;7.78;;;;;;;16.54;93.43;95942.81;2049936;29;20055;-58
2023/08/19 02:17:52;;;;;;;10.15;8.05;;;;;;;16.56;93.25;95947.94;2057340;28;20054;-59
2023/08/19 02:18:54;;;;;;;11.38;8.30;;;;;;;16.59;93.43;95947.69;2065970;28;20062;-58
2023/08/19 02:19:55;;;;;;;10.88;8.07;;;;;;;16.60;93.87;95946.78;2066770;28;20487;-58
2023/08/19 02:20:56;;;;;;;10.93;8.20;;;;;;;16.56;93.24;95947.94;2065843;28;20065;-58
2023/08/19 02:21:57;;;;;;;9.32;7.82;;;;;;;16.52;93.36;95952.56;2066154;28;20376;-58
2023/08/19 02:22:59;;;;;;;9.57;8.50;;;;;;;16.49;93.37;95946.69;2066628;28;20057;-58
2023/08/19 02:24:00;;;;;;;12.57;8.75;;;;;;;16.48;93.22;95948.47;2066352;28;20054;-58
2023/08/19 02:25:01;;;;;;;11.05;8.25;;;;;;;16.49;93.57;95954.53;2066247;28;20042;-58
2023/08/19 02:26:03;;;;;;;11.40;7.90;;;;;;;16.48;94.31;95951.09;2057711;28;20054;-58
2023/08/19 02:27:04;;;;;;;12.48;8.55;;;;;;;16.44;93.33;95941.78;2050217;28;20066;-57
2023/08/19 02:28:05;;;;;;;11.18;8.40;;;;;;;16.44;93.82;95947.03;2057695;28;20050;-57
2023/08/19 02:29:06;;;;;;;8.95;8.05;;;;;;;16.40;93.79;95945.56;2066269;28;20050;-58
2023/08/19 02:30:10;;;;;;;10.38;7.93;;;;;;;16.42;94.32;95943.69;2057345;28;20058;-58
2023/08/19 02:31:11;;;;;;;11.93;7.93;;;;;;;16.47;94.19;95941.56;2049916;28;20054;-57
2023/08/19 02:32:12;;;;;;;11.98;7.65;;;;;;;16.49;94.14;95946.69;2058335;28;20070;-58
2023/08/19 02:33:13;;;;;;;9.55;7.95;;;;;;;16.46;93.29;95941.66;2065315;28;20050;-58
2023/08/19 02:34:14;;;;;;;10.23;7.43;;;;;;;16.48;93.61;95942.41;2066518;28;20054;-58
2023/08/19 02:35:17;;;;;;;11.95;7.22;;;;;;;16.51;93.71;95942.19;2057669;28;20059;-61
2023/08/19 02:36:19;;;;;;;10.30;7.78;;;;;;;16.52;93.86;95949.94;2057952;28;20520;-61
2023/08/19 02:37:20;;;;;;;9.18;7.13;;;;;;;16.47;93.17;95945.97;2066495;28;20050;-61
2023/08/19 02:38:21;;;;;;;9.70;8.27;;;;;;;16.41;93.86;95938.53;2066276;28;20051;-61
2023/08/19 02:39:22;;;;;;;10.13;8.10;;;;;;;16.32;93.76;95932.16;2066167;28;20054;-60
2023/08/19 02:40:23;;;;;;;9.02;7.85;;;;;;;16.30;95.15;95942.78;2065797;28;20142;-61
2023/08/19 02:41:24;;;;;;;11.52;7.70;;;;;;;16.29;94.79;95948.13;2066247;28;20057;-61
2023/08/19 02:42:25;;;;;;;8.90;7.85;;;;;;;16.28;94.65;95941.22;2065979;28;20069;-62
2023/08/19 02:43:27;;;;;;;12.60;8.25;;;;;;;16.28;94.68;95934.19;2066111;28;20106;-61
2023/08/19 02:44:28;;;;;;;12.20;7.75;;;;;;;16.27;94.95;95935.09;2066384;28;20053;-61
2023/08/19 02:45:29;;;;;;;10.95;7.93;;;;;;;16.25;94.60;95939.66;2066610;28;20490;-61
2023/08/19 02:46:31;;;;;;;11.63;7.45;;;;;;;16.19;94.73;95931.38;2065860;28;20062;-61
2023/08/19 02:47:32;;;;;;;9.77;8.00;;;;;;;16.20;94.99;95935.66;2057568;28;20051;-61
2023/08/19 02:48:33;;;;;;;13.45;8.27;;;;;;;16.15;94.95;95930.75;2050256;28;20400;-61
2023/08/19 02:49:35;;;;;;;9.93;7.90;;;;;;;16.10;95.10;95928.44;2057470;28;20061;-61
2023/08/19 02:50:36;;;;;;;9.15;7.82;;;;;;;16.14;95.59;95933.47;2057852;28;20054;-61
2023/08/19 02:51:37;;;;;;;10.95;8.23;;;;;;;16.12;95.04;95935.34;2049880;29;20085;-61
2023/08/19 02:52:38;;;;;;;12.25;8.90;;;;;;;16.10;95.29;95936.31;2057592;28;20046;-61
2023/08/19 02:53:39;;;;;;;9.02;7.55;;;;;;;16.04;95.32;95933.28;2066281;28;20058;-61
2023/08/19 02:54:40;;;;;;;12.25;8.57;;;;;;;16.03;95.84;95937.66;2057111;28;20058;-61
2023/08/19 02:55:41;;;;;;;10.55;8.43;;;;;;;16.01;95.58;95938.72;2057492;28;20073;-61
2023/08/19 02:56:42;;;;;;;10.65;8.85;;;;;;;16.00;95.69;95937.06;2057877;28;20058;-61
2023/08/19 02:57:43;;;;;;;12.48;8.50;;;;;;;16.00;95.15;95937.06;2057931;28;20062;-61
2023/08/19 02:58:45;;;;;;;14.50;7.70;;;;;;;16.00;95.54;95937.88;2065869;28;20422;-61
2023/08/19 02:59:46;;;;;;;10.50;7.65;;;;;;;15.95;95.81;95933.91;2058116;28;20054;-61
2023/08/19 03:00:47;;;;;;;14.85;8.93;;;;;;;15.96;95.90;95933.81;2049824;28;20062;-61
2023/08/19 03:01:49;;;;;;;9.77;8.57;;;;;;;16.02;96.25;95938.63;2057589;28;20534;-61
2023/08/19 03:02:50;;;;;;;10.00;8.07;;;;;;;16.07;96.24;95933.91;2066018;28;20058;-61
2023/08/19 03:03:51;;;;;;;10.20;8.30;;;;;;;16.15;95.81;95938.63;2057243;28;20058;-61
2023/08/19 03:04:52;;;;;;;10.43;7.88;;;;;;;16.23;94.35;95938.91;2057583;28;20468;-61
2023/08/19 03:05:59;;;;;;;9.85;7.95;;;;;;;16.26;94.32;95940.47;2066354;28;20054;-61
2023/08/19 03:07:00;;;;;;;9.15;7.85;;;;;;;16.29;93.54;95945.50;2057983;28;20058;-61
2023/08/19 03:08:02;;;;;;;11.20;8.13;;;;;;;16.26;94.04;95943.94;2057312;28;20055;-61
2023/08/19 03:09:03;;;;;;;10.98;8.32;;;;;;;16.25;93.92;95936.16;2057783;28;20051;-61
2023/08/19 03:10:05;;;;;;;10.13;7.78;;;;;;;16.27;93.87;95945.59;2057939;28;20050;-62
2023/08/19 03:11:06;;;;;;;10.32;7.90;;;;;;;16.27;94.25;95950.00;2065751;28;20462;-61
2023/08/19 03:12:08;;;;;;;8.82;7.13;;;;;;;16.25;93.77;95944.88;2066594;28;20050;-61
2023/08/19 03:13:09;;;;;;;10.77;7.97;;;;;;;16.27;94.28;95947.38;2057917;28;20051;-61
2023/08/19 03:14:10;;;;;;;9.40;6.82;;;;;;;16.29;93.23;95953.34;2057020;28;20055;-61
2023/08/19 03:15:12;;;;;;;9.55;7.32;;;;;;;16.32;93.53;95953.13;2057734;28;20063;-61
2023/08/19 03:16:14;;;;;;;11.13;7.70;;;;;;;16.31;93.29;95954.09;2066309;28;20046;-61
2023/08/19 03:17:15;;;;;;;9.35;7.32;;;;;;;16.27;93.67;95955.25;2066230;28;20483;-61
2023/08/19 03:18:16;;;;;;;9.23;7.68;;;;;;;16.26;93.54;95953.56;2057688;28;20051;-61
2023/08/19 03:19:18;;;;;;;9.60;7.47;;;;;;;16.23;93.18;95946.78;2057546;28;20070;-61
2023/08/19 03:20:19;;;;;;;8.60;7.07;;;;;;;16.24;93.06;95951.06;2066149;28;20410;-62
2023/08/19 03:21:20;;;;;;;11.23;7.40;;;;;;;16.23;93.43;95949.38;2057602;28;20081;-61
2023/08/19 03:22:21;;;;;;;9.82;8.05;;;;;;;16.20;93.30;95951.38;2057265;28;20519;-61
2023/08/19 03:23:23;;;;;;;12.38;7.63;;;;;;;16.17;93.24;95952.44;2066226;28;20054;-61
2023/08/19 03:24:24;;;;;;;8.68;7.22;;;;;;;16.13;93.58;95953.59;2065891;28;20054;-61
2023/08/19 03:25:25;;;;;;;9.50;7.68;;;;;;;16.08;93.30;95953.91;2057769;28;20066;-61
2023/08/19 03:26:26;;;;;;;12.23;8.43;;;;;;;16.02;93.54;95962.19;2057648;28;20066;-61
2023/08/19 03:27:27;;;;;;;9.70;7.95;;;;;;;15.96;93.92;95957.41;2065068;28;20057;-61
2023/08/19 03:28:29;;;;;;;12.73;8.15;;;;;;;15.93;94.65;95952.38;2057298;28;20051;-61
2023/08/19 03:29:31;;;;;;;10.07;7.30;;;;;;;15.91;94.59;95956.88;2057446;28;20419;-61
2023/08/19 03:30:32;;;;;;;10.00;7.88;;;;;;;15.90;95.66;95952.56;2057173;28;20065;-61
2023/08/19 03:31:33;;;;;;;10.77;7.80;;;;;;;15.87;95.40;95955.41;2057194;28;20055;-61
2023/08/19 03:32:34;;;;;;;9.50;7.40;;;;;;;15.82;95.13;95954.88;2049556;29;20054;-62
2023/08/19 03:33:36;;;;;;;9.55;8.10;;;;;;;15.79;95.05;95957.72;2049448;29;20058;-61
2023/08/19 03:34:37;;;;;;;11.57;8.38;;;;;;;15.78;95.53;95956.88;2049466;28;20066;-61
2023/08/19 03:35:38;;;;;;;9.20;7.88;;;;;;;15.74;95.48;95962.41;2057142;28;20055;-61
2023/08/19 03:36:41;;;;;;;10.32;7.68;;;;;;;15.70;95.53;95955.72;2065684;28;20054;-61
2023/08/19 03:37:43;;;;;;;11.63;8.40;;;;;;;15.69;96.52;95954.91;2057371;28;20533;-61
2023/08/19 03:38:44;;;;;;;8.95;8.02;;;;;;;15.60;96.09;95958.91;2057356;28;20427;-61
2023/08/19 03:39:45;;;;;;;12.40;8.70;;;;;;;15.66;95.82;95966.38;2057471;28;20047;-61
2023/08/19 03:40:46;;;;;;;9.45;8.45;;;;;;;15.68;96.16;95957.56;2066101;28;20050;-61
2023/08/19 03:41:47;;;;;;;11.45;7.90;;;;;;;15.62;95.72;95964.06;2049318;29;20393;-61
2023/08/19 03:42:48;;;;;;;8.85;7.63;;;;;;;15.61;95.91;95967.59;2049104;29;20055;-61
2023/08/19 03:43:49;;;;;;;9.10;7.40;;;;;;;15.56;96.35;95965.31;2065652;28;20062;-61
2023/08/19 03:44:50;;;;;;;11.13;8.57;;;;;;;15.55;96.25;95968.88;2057198;28;20438;-61
2023/08/19 03:45:52;;;;;;;9.30;7.88;;;;;;;15.53;97.28;95975.13;2049594;28;20070;-62
2023/08/19 03:46:53;;;;;;;11.40;8.00;;;;;;;15.53;97.45;95973.38;2048987;29;20058;-61
2023/08/19 03:47:54;;;;;;;12.13;8.35;;;;;;;15.51;97.29;95971.81;2057314;28;20081;-61
2023/08/19 03:48:55;;;;;;;10.82;8.88;;;;;;;15.47;97.20;95979.00;2065958;28;20053;-61
2023/08/19 03:49:56;;;;;;;10.20;7.82;;;;;;;15.51;97.25;95972.66;2057155;28;20065;-61
2023/08/19 03:50:57;;;;;;;9.43;8.13;;;;;;;15.56;98.13;95970.56;2056547;28;20062;-61
2023/08/19 03:51:58;;;;;;;10.20;8.40;;;;;;;15.56;98.07;95970.56;2065306;28;20049;-61
2023/08/19 03:52:59;;;;;;;9.05;8.15;;;;;;;15.56;98.68;95973.19;2057260;28;20491;-61
2023/08/19 03:54:00;;;;;;;12.55;9.00;;;;;;;15.53;98.42;95980.38;2057293;28;20061;-60
2023/08/19 03:55:01;;;;;;;9.40;8.27;;;;;;;15.48;97.20;95975.47;2057024;28;20046;-60
2023/08/19 03:56:03;;;;;;;11.77;8.57;;;;;;;15.44;98.13;95976.59;2049477;28;20122;-61
2023/08/19 03:57:04;;;;;;;11.45;9.00;;;;;;;15.37;98.33;95970.94;2056775;28;20050;-61
2023/08/19 03:58:05;;;;;;;11.00;8.68;;;;;;;15.39;98.96;95974.28;2056693;28;20047;-61
2023/08/19 03:59:06;;;;;;;11.45;8.63;;;;;;;15.38;98.33;95977.84;2049298;29;20062;-61
2023/08/19 04:00:08;;;;;;;13.32;8.45;;;;;;;15.32;98.86;95974.81;2057364;28;20054;-61
2023/08/19 04:01:15;;;;;;;11.98;8.75;;;;;;;15.32;99.05;95983.50;2065518;28;20049;-59
2023/08/19 04:02:16;;;;;;;11.85;9.40;;;;;;;15.28;98.83;95970.72;2057080;28;20046;-61
2023/08/19 04:03:17;;;;;;;11.63;9.57;;;;;;;15.31;99.55;95976.56;2041570;29;20483;-61
2023/08/19 04:04:20;;;;;;;10.63;8.93;;;;;;;15.30;99.17;95979.31;2041781;28;20056;-61
2023/08/19 04:05:22;;;;;;;10.75;9.65;;;;;;;15.30;99.58;95979.31;2041361;29;20059;-61
2023/08/19 04:06:23;;;;;;;13.23;10.43;;;;;;;15.27;100.00;95979.53;2041381;28;20059;-61
2023/08/19 04:07:24;;;;;;;12.05;9.18;;;;;;;15.24;99.60;95980.56;2057201;28;20054;-61
2023/08/19 04:08:25;;;;;;;13.23;9.30;;;;;;;15.22;100.00;95982.44;2057464;28;20062;-61
2023/08/19 04:09:26;;;;;;;11.90;9.77;;;;;;;15.20;99.73;95985.13;2065747;28;20062;-61
2023/08/19 04:10:28;;;;;;;12.63;9.60;;;;;;;15.18;99.54;95980.94;2057466;28;20085;-61
2023/08/19 04:11:29;;;;;;;14.25;9.98;;;;;;;15.19;99.73;95980.84;2057209;28;20057;-61
2023/08/19 04:12:30;;;;;;;11.50;9.75;;;;;;;15.25;100.00;95979.59;2056856;28;20061;-61
2023/08/19 04:13:31;;;;;;;12.18;9.15;;;;;;;15.19;100.00;95977.41;2056699;28;20506;-61
2023/08/19 04:14:32;;;;;;;12.07;8.95;;;;;;;15.21;100.00;95986.00;2065357;28;20400;-61
2023/08/19 04:15:34;;;;;;;11.90;9.02;;;;;;;15.19;100.00;95986.09;2057385;28;20055;-61
2023/08/19 04:16:38;;;;;;;14.10;10.23;;;;;;;15.21;100.00;95984.22;2057001;28;20062;-61
2023/08/19 04:17:39;;;;;;;11.20;10.00;;;;;;;15.22;100.00;95987.66;2065178;28;20046;-61
2023/08/19 04:18:40;;;;;;;12.93;10.07;;;;;;;15.20;100.00;95987.75;2065842;28;20063;-61
2023/08/19 04:19:42;;;;;;;12.90;10.30;;;;;;;15.22;100.00;95985.03;2057306;28;20070;-61
2023/08/19 04:20:43;;;;;;;16.63;9.68;;;;;;;15.26;100.00;95991.72;2048927;28;20051;-61
2023/08/19 04:21:45;;;;;;;13.95;9.65;;;;;;;15.22;100.00;95990.28;2057241;28;20055;-61
2023/08/19 04:22:49;;;;;;;11.05;9.55;;;;;;;15.28;100.00;95994.25;2065741;28;20069;-61
2023/08/19 04:23:50;;;;;;;13.52;9.82;;;;;;;15.32;100.00;95993.97;2057108;28;20058;-61
2023/08/19 04:24:52;;;;;;;12.13;9.35;;;;;;;15.34;100.00;95984.25;2048863;29;20055;-61
2023/08/19 04:25:54;;;;;;;11.38;9.07;;;;;;;15.41;100.00;95993.34;2057115;28;20078;-61
2023/08/19 04:26:56;;;;;;;10.10;8.65;;;;;;;15.45;100.00;96001.84;2057106;28;20467;-61
2023/08/19 04:27:57;;;;;;;13.90;9.27;;;;;;;15.52;100.00;96000.47;2057080;28;20057;-61
2023/08/19 04:28:59;;;;;;;11.55;8.82;;;;;;;15.61;100.00;95999.88;2065111;28;20054;-62
2023/08/19 04:30:05;;;;;;;9.27;8.20;;;;;;;15.70;100.00;95995.00;2056796;28;20521;-61
2023/08/19 04:31:07;;;;;;;12.05;8.90;;;;;;;15.88;99.89;96002.44;2049470;28;20054;-61
2023/08/19 04:32:30;;;;;;;8.18;7.13;;;;;;;15.96;98.55;95998.44;2056864;28;20047;-61
2023/08/19 04:33:31;;;;;;;9.70;7.53;;;;;;;16.06;98.06;95999.50;2057093;28;20058;-61
2023/08/19 04:34:32;;;;;;;9.98;7.82;;;;;;;16.07;96.80;95996.78;2056882;28;20430;-61
2023/08/19 04:35:35;;;;;;;11.75;8.48;;;;;;;16.25;96.99;96002.53;2049024;28;20059;-61
2023/08/19 04:36:37;;;;;;;9.23;7.70;;;;;;;16.38;97.63;95994.63;2048779;28;20055;-61
2023/08/19 04:37:38;;;;;;;9.93;7.47;;;;;;;16.46;96.77;95994.91;2057023;28;20081;-61
2023/08/19 04:38:39;;;;;;;9.52;7.50;;;;;;;16.58;95.75;96000.25;2057069;28;20066;-61
2023/08/19 04:39:42;;;;;;;12.23;7.18;;;;;;;16.69;94.54;95998.53;2049205;28;20055;-61
2023/08/19 04:41:05;;;;;;;9.70;7.32;;;;;;;16.71;92.62;95999.28;2060009;28;20050;-61
2023/08/19 04:42:13;;;;;;;9.02;6.57;;;;;;;16.76;92.66;96002.41;2056316;28;20051;-60
2023/08/19 04:43:14;;;;;;;8.68;6.85;;;;;;;16.93;92.59;96001.22;2056959;28;20055;-62
2023/08/19 04:44:16;;;;;;;9.27;6.45;;;;;;;16.90;89.88;96001.44;2063895;28;20069;-61
2023/08/19 04:45:18;;;;;;;7.82;6.47;;;;;;;16.93;89.46;96001.22;2064586;28;20736;-61
2023/08/19 04:46:22;;;;;;;9.15;6.97;;;;;;;16.88;88.25;96008.56;2056546;28;20515;-61
2023/08/19 04:47:23;;;;;;;9.35;6.55;;;;;;;16.93;88.02;95995.97;2048650;29;20062;-62
2023/08/19 04:48:24;;;;;;;12.45;6.43;;;;;;;16.96;88.18;96000.97;2049084;29;20066;-61
2023/08/19 04:49:25;;;;;;;8.73;6.47;;;;;;;16.98;87.19;96000.88;2048999;29;20059;-62
2023/08/19 04:50:26;;;;;;;6.97;5.88;;;;;;;17.18;87.41;96009.91;2056891;28;20059;-62
2023/08/19 04:51:27;;;;;;;8.73;6.47;;;;;;;17.36;88.32;96005.94;2056944;28;20432;-61
2023/08/19 04:52:28;;;;;;;9.88;6.30;;;;;;;17.49;87.05;96005.88;2041241;29;20051;-61